sensor_id;sensor_type;location;lat;lon;timestamp;P1;durP1;ratioP1;P2;durP2;ratioP2
5845;SDS011;2949;50.778;7.094;2023-02-01T00:01:32;29.20;;;13.80;;
5845;SDS011;2949;50.778;7.094;2023-02-01T00:03:57;25.27;;;12.00;;
5845;SDS011;2949;50.778;7.094;2023-02-01T00:06:23;24.17;;;11.73;;
5845;SDS011;2949;50.778;7.094;2023-02-01T00:08:49;26.03;;;10.37;;
5845;SDS011;2949;50.778;7.094;2023-02-01T00:11:18;26.33;;;11.47;;
5845;SDS011;2949;50.778;7.094;2023-02-01T00:13:43;26.13;;;10.57;;
5845;SDS011;2949;50.778;7.094;2023-02-01T00:18:37;32.40;;;12.30;;
5845;SDS011;2949;50.778;7.094;2023-02-01T00:21:02;34.53;;;10.27;;
5845;SDS011;2949;50.778;7.094;2023-02-01T00:23:31;27.60;;;10.70;;
5845;SDS011;2949;50.778;7.094;2023-02-01T00:26:03;27.63;;;11.73;;
5845;SDS011;2949;50.778;7.094;2023-02-01T00:28:29;30.40;;;12.90;;
5845;SDS011;2949;50.778;7.094;2023-02-01T00:30:58;34.10;;;12.77;;
5845;SDS011;2949;50.778;7.094;2023-02-01T00:33:25;26.90;;;11.73;;
5845;SDS011;2949;50.778;7.094;2023-02-01T00:35:55;32.67;;;11.30;;
5845;SDS011;2949;50.778;7.094;2023-02-01T00:38:26;28.00;;;11.93;;
5845;SDS011;2949;50.778;7.094;2023-02-01T00:40:52;22.37;;;10.60;;
5845;SDS011;2949;50.778;7.094;2023-02-01T00:43:18;34.83;;;10.77;;
5845;SDS011;2949;50.778;7.094;2023-02-01T00:45:45;24.90;;;9.87;;
5845;SDS011;2949;50.778;7.094;2023-02-01T00:48:11;41.83;;;9.73;;
5845;SDS011;2949;50.778;7.094;2023-02-01T00:50:43;23.30;;;8.50;;
5845;SDS011;2949;50.778;7.094;2023-02-01T00:53:11;17.60;;;7.43;;
5845;SDS011;2949;50.778;7.094;2023-02-01T00:55:37;19.00;;;7.67;;
5845;SDS011;2949;50.778;7.094;2023-02-01T00:58:03;16.03;;;6.70;;
5845;SDS011;2949;50.778;7.094;2023-02-01T01:00:31;20.07;;;5.80;;
5845;SDS011;2949;50.778;7.094;2023-02-01T01:02:57;22.93;;;5.60;;
5845;SDS011;2949;50.778;7.094;2023-02-01T01:05:23;24.97;;;5.97;;
5845;SDS011;2949;50.778;7.094;2023-02-01T01:07:48;20.90;;;4.63;;
5845;SDS011;2949;50.778;7.094;2023-02-01T01:10:14;16.10;;;5.20;;
5845;SDS011;2949;50.778;7.094;2023-02-01T01:12:40;14.37;;;4.73;;
5845;SDS011;2949;50.778;7.094;2023-02-01T01:15:06;14.57;;;4.47;;
5845;SDS011;2949;50.778;7.094;2023-02-01T01:17:32;12.03;;;3.87;;
5845;SDS011;2949;50.778;7.094;2023-02-01T01:19:58;10.80;;;3.63;;
5845;SDS011;2949;50.778;7.094;2023-02-01T01:22:23;9.93;;;3.50;;
5845;SDS011;2949;50.778;7.094;2023-02-01T01:24:49;27.93;;;4.27;;
5845;SDS011;2949;50.778;7.094;2023-02-01T01:27:14;17.30;;;3.80;;
5845;SDS011;2949;50.778;7.094;2023-02-01T01:29:40;16.43;;;3.60;;
5845;SDS011;2949;50.778;7.094;2023-02-01T01:32:05;16.23;;;3.70;;
5845;SDS011;2949;50.778;7.094;2023-02-01T01:34:31;14.47;;;3.37;;
5845;SDS011;2949;50.778;7.094;2023-02-01T01:36:57;17.60;;;2.90;;
5845;SDS011;2949;50.778;7.094;2023-02-01T01:39:22;14.40;;;3.50;;
5845;SDS011;2949;50.778;7.094;2023-02-01T01:41:48;13.10;;;3.20;;
5845;SDS011;2949;50.778;7.094;2023-02-01T01:47:16;27.00;;;4.00;;
5845;SDS011;2949;50.778;7.094;2023-02-01T01:49:42;18.03;;;3.23;;
5845;SDS011;2949;50.778;7.094;2023-02-01T01:52:08;12.10;;;3.27;;
5845;SDS011;2949;50.778;7.094;2023-02-01T01:54:38;13.83;;;3.07;;
5845;SDS011;2949;50.778;7.094;2023-02-01T01:57:09;15.60;;;3.63;;
5845;SDS011;2949;50.778;7.094;2023-02-01T01:59:39;22.93;;;3.90;;
5845;SDS011;2949;50.778;7.094;2023-02-01T02:02:08;18.53;;;3.00;;
5845;SDS011;2949;50.778;7.094;2023-02-01T02:04:34;10.17;;;3.70;;
5845;SDS011;2949;50.778;7.094;2023-02-01T02:07:01;15.17;;;3.67;;
5845;SDS011;2949;50.778;7.094;2023-02-01T02:09:30;23.20;;;4.23;;
5845;SDS011;2949;50.778;7.094;2023-02-01T02:11:56;11.67;;;3.40;;
5845;SDS011;2949;50.778;7.094;2023-02-01T02:14:22;12.20;;;3.47;;
5845;SDS011;2949;50.778;7.094;2023-02-01T02:45:17;15.30;;;3.27;;
5845;SDS011;2949;50.778;7.094;2023-02-01T02:48:17;15.53;;;4.00;;
5845;SDS011;2949;50.778;7.094;2023-02-01T02:51:01;19.90;;;4.20;;
5845;SDS011;2949;50.778;7.094;2023-02-01T02:53:52;20.20;;;4.57;;
5845;SDS011;2949;50.778;7.094;2023-02-01T02:56:42;14.20;;;4.17;;
5845;SDS011;2949;50.778;7.094;2023-02-01T02:59:26;19.93;;;5.33;;
5845;SDS011;2949;50.778;7.094;2023-02-01T03:02:12;13.73;;;4.03;;
5845;SDS011;2949;50.778;7.094;2023-02-01T03:05:01;21.03;;;4.70;;
5845;SDS011;2949;50.778;7.094;2023-02-01T03:13:13;17.33;;;5.10;;
5845;SDS011;2949;50.778;7.094;2023-02-01T03:16:32;20.37;;;4.93;;
5845;SDS011;2949;50.778;7.094;2023-02-01T03:21:50;8.57;;;3.80;;
5845;SDS011;2949;50.778;7.094;2023-02-01T03:24:32;22.53;;;5.10;;
5845;SDS011;2949;50.778;7.094;2023-02-01T03:29:44;18.77;;;4.43;;
5845;SDS011;2949;50.778;7.094;2023-02-01T03:32:14;15.80;;;3.93;;
5845;SDS011;2949;50.778;7.094;2023-02-01T03:34:40;11.33;;;4.70;;
5845;SDS011;2949;50.778;7.094;2023-02-01T03:37:08;18.63;;;4.00;;
5845;SDS011;2949;50.778;7.094;2023-02-01T03:39:39;19.93;;;4.67;;
5845;SDS011;2949;50.778;7.094;2023-02-01T03:42:10;14.23;;;4.60;;
5845;SDS011;2949;50.778;7.094;2023-02-01T03:44:54;16.80;;;4.40;;
5845;SDS011;2949;50.778;7.094;2023-02-01T03:47:34;22.47;;;5.60;;
5845;SDS011;2949;50.778;7.094;2023-02-01T03:50:05;26.77;;;4.43;;
5845;SDS011;2949;50.778;7.094;2023-02-01T03:55:18;18.40;;;4.10;;
5845;SDS011;2949;50.778;7.094;2023-02-01T03:57:49;17.33;;;4.00;;
5845;SDS011;2949;50.778;7.094;2023-02-01T04:00:23;23.03;;;4.63;;
5845;SDS011;2949;50.778;7.094;2023-02-01T04:02:50;20.47;;;4.00;;
5845;SDS011;2949;50.778;7.094;2023-02-01T04:05:17;13.73;;;3.70;;
5845;SDS011;2949;50.778;7.094;2023-02-01T04:07:42;22.87;;;3.80;;
5845;SDS011;2949;50.778;7.094;2023-02-01T04:10:09;15.23;;;4.17;;
5845;SDS011;2949;50.778;7.094;2023-02-01T04:12:35;18.37;;;4.33;;
5845;SDS011;2949;50.778;7.094;2023-02-01T04:15:00;27.80;;;4.30;;
5845;SDS011;2949;50.778;7.094;2023-02-01T04:17:26;18.10;;;3.90;;
5845;SDS011;2949;50.778;7.094;2023-02-01T04:19:51;25.00;;;4.17;;
5845;SDS011;2949;50.778;7.094;2023-02-01T04:22:17;19.07;;;5.13;;
5845;SDS011;2949;50.778;7.094;2023-02-01T04:24:42;15.33;;;4.50;;
5845;SDS011;2949;50.778;7.094;2023-02-01T04:27:08;44.77;;;5.37;;
5845;SDS011;2949;50.778;7.094;2023-02-01T04:29:33;19.23;;;5.60;;
5845;SDS011;2949;50.778;7.094;2023-02-01T04:31:59;18.90;;;3.90;;
5845;SDS011;2949;50.778;7.094;2023-02-01T04:34:24;19.50;;;4.90;;
5845;SDS011;2949;50.778;7.094;2023-02-01T04:36:51;17.90;;;4.50;;
5845;SDS011;2949;50.778;7.094;2023-02-01T04:39:16;19.57;;;4.87;;
5845;SDS011;2949;50.778;7.094;2023-02-01T04:41:42;21.97;;;4.90;;
5845;SDS011;2949;50.778;7.094;2023-02-01T04:44:12;23.20;;;5.47;;
5845;SDS011;2949;50.778;7.094;2023-02-01T04:46:39;18.53;;;4.13;;
5845;SDS011;2949;50.778;7.094;2023-02-01T04:49:05;16.80;;;4.83;;
5845;SDS011;2949;50.778;7.094;2023-02-01T04:51:30;16.20;;;4.10;;
5845;SDS011;2949;50.778;7.094;2023-02-01T04:53:57;18.27;;;4.53;;
5845;SDS011;2949;50.778;7.094;2023-02-01T04:56:22;22.63;;;4.10;;
5845;SDS011;2949;50.778;7.094;2023-02-01T04:58:48;20.57;;;4.53;;
5845;SDS011;2949;50.778;7.094;2023-02-01T05:01:13;17.23;;;4.43;;
5845;SDS011;2949;50.778;7.094;2023-02-01T05:03:39;13.50;;;4.03;;
5845;SDS011;2949;50.778;7.094;2023-02-01T05:06:04;15.60;;;3.57;;
5845;SDS011;2949;50.778;7.094;2023-02-01T05:08:30;19.00;;;4.10;;
5845;SDS011;2949;50.778;7.094;2023-02-01T05:10:56;13.30;;;3.70;;
5845;SDS011;2949;50.778;7.094;2023-02-01T05:13:22;11.10;;;4.87;;
5845;SDS011;2949;50.778;7.094;2023-02-01T05:16:06;23.90;;;4.30;;
5845;SDS011;2949;50.778;7.094;2023-02-01T05:18:31;20.93;;;4.03;;
5845;SDS011;2949;50.778;7.094;2023-02-01T05:20:57;15.63;;;4.33;;
5845;SDS011;2949;50.778;7.094;2023-02-01T05:23:22;12.57;;;3.70;;
5845;SDS011;2949;50.778;7.094;2023-02-01T05:25:48;21.07;;;4.23;;
5845;SDS011;2949;50.778;7.094;2023-02-01T05:28:13;13.40;;;3.60;;
5845;SDS011;2949;50.778;7.094;2023-02-01T05:30:39;18.47;;;4.40;;
5845;SDS011;2949;50.778;7.094;2023-02-01T05:33:04;14.63;;;3.97;;
5845;SDS011;2949;50.778;7.094;2023-02-01T05:35:31;18.67;;;4.23;;
5845;SDS011;2949;50.778;7.094;2023-02-01T05:37:56;18.57;;;3.90;;
5845;SDS011;2949;50.778;7.094;2023-02-01T05:40:22;12.40;;;3.50;;
5845;SDS011;2949;50.778;7.094;2023-02-01T05:42:47;22.80;;;4.57;;
5845;SDS011;2949;50.778;7.094;2023-02-01T05:45:13;24.53;;;3.30;;
5845;SDS011;2949;50.778;7.094;2023-02-01T05:47:39;18.03;;;2.93;;
5845;SDS011;2949;50.778;7.094;2023-02-01T05:50:04;17.53;;;3.90;;
5845;SDS011;2949;50.778;7.094;2023-02-01T05:52:31;21.47;;;3.50;;
5845;SDS011;2949;50.778;7.094;2023-02-01T05:54:57;16.13;;;3.13;;
5845;SDS011;2949;50.778;7.094;2023-02-01T05:57:22;17.50;;;3.10;;
5845;SDS011;2949;50.778;7.094;2023-02-01T05:59:48;32.93;;;2.80;;
5845;SDS011;2949;50.778;7.094;2023-02-01T06:02:14;15.10;;;3.17;;
5845;SDS011;2949;50.778;7.094;2023-02-01T06:04:40;15.23;;;3.00;;
5845;SDS011;2949;50.778;7.094;2023-02-01T06:07:06;15.63;;;2.53;;
5845;SDS011;2949;50.778;7.094;2023-02-01T06:09:32;16.03;;;3.07;;
5845;SDS011;2949;50.778;7.094;2023-02-01T06:11:58;12.73;;;2.87;;
5845;SDS011;2949;50.778;7.094;2023-02-01T06:14:25;19.47;;;2.83;;
5845;SDS011;2949;50.778;7.094;2023-02-01T06:16:52;12.13;;;2.77;;
5845;SDS011;2949;50.778;7.094;2023-02-01T06:19:18;24.83;;;2.80;;
5845;SDS011;2949;50.778;7.094;2023-02-01T06:21:43;22.13;;;3.00;;
5845;SDS011;2949;50.778;7.094;2023-02-01T06:24:09;19.03;;;2.67;;
5845;SDS011;2949;50.778;7.094;2023-02-01T06:26:35;15.83;;;2.90;;
5845;SDS011;2949;50.778;7.094;2023-02-01T06:29:01;23.17;;;3.30;;
5845;SDS011;2949;50.778;7.094;2023-02-01T06:31:26;16.00;;;2.40;;
5845;SDS011;2949;50.778;7.094;2023-02-01T06:33:52;16.53;;;3.00;;
5845;SDS011;2949;50.778;7.094;2023-02-01T06:36:18;17.77;;;3.00;;
5845;SDS011;2949;50.778;7.094;2023-02-01T06:38:46;24.13;;;3.60;;
5845;SDS011;2949;50.778;7.094;2023-02-01T06:41:12;20.60;;;3.10;;
5845;SDS011;2949;50.778;7.094;2023-02-01T06:43:37;19.07;;;3.27;;
5845;SDS011;2949;50.778;7.094;2023-02-01T06:46:04;19.30;;;2.57;;
5845;SDS011;2949;50.778;7.094;2023-02-01T06:48:32;21.80;;;3.00;;
5845;SDS011;2949;50.778;7.094;2023-02-01T06:50:58;17.33;;;3.80;;
5845;SDS011;2949;50.778;7.094;2023-02-01T06:53:23;27.93;;;3.53;;
5845;SDS011;2949;50.778;7.094;2023-02-01T06:55:59;17.60;;;3.23;;
5845;SDS011;2949;50.778;7.094;2023-02-01T06:58:28;20.90;;;3.30;;
5845;SDS011;2949;50.778;7.094;2023-02-01T07:00:54;21.63;;;3.17;;
5845;SDS011;2949;50.778;7.094;2023-02-01T07:03:20;16.60;;;2.73;;
5845;SDS011;2949;50.778;7.094;2023-02-01T07:05:45;16.03;;;3.10;;
5845;SDS011;2949;50.778;7.094;2023-02-01T07:08:11;29.27;;;4.27;;
5845;SDS011;2949;50.778;7.094;2023-02-01T07:10:36;16.37;;;2.73;;
5845;SDS011;2949;50.778;7.094;2023-02-01T07:13:02;17.00;;;3.60;;
5845;SDS011;2949;50.778;7.094;2023-02-01T07:15:27;16.07;;;3.10;;
5845;SDS011;2949;50.778;7.094;2023-02-01T07:17:56;23.10;;;2.97;;
5845;SDS011;2949;50.778;7.094;2023-02-01T07:20:22;17.30;;;3.70;;
5845;SDS011;2949;50.778;7.094;2023-02-01T07:22:47;14.87;;;3.40;;
5845;SDS011;2949;50.778;7.094;2023-02-01T07:25:13;25.40;;;2.77;;
5845;SDS011;2949;50.778;7.094;2023-02-01T07:27:39;17.87;;;2.90;;
5845;SDS011;2949;50.778;7.094;2023-02-01T07:30:04;20.77;;;3.10;;
5845;SDS011;2949;50.778;7.094;2023-02-01T07:32:31;21.83;;;2.90;;
5845;SDS011;2949;50.778;7.094;2023-02-01T07:34:57;19.80;;;3.30;;
5845;SDS011;2949;50.778;7.094;2023-02-01T07:37:23;15.47;;;3.10;;
5845;SDS011;2949;50.778;7.094;2023-02-01T07:39:49;17.57;;;4.00;;
5845;SDS011;2949;50.778;7.094;2023-02-01T07:42:18;17.70;;;3.70;;
5845;SDS011;2949;50.778;7.094;2023-02-01T07:44:44;16.20;;;3.50;;
5845;SDS011;2949;50.778;7.094;2023-02-01T07:47:09;10.60;;;2.80;;
5845;SDS011;2949;50.778;7.094;2023-02-01T07:49:35;20.90;;;3.67;;
5845;SDS011;2949;50.778;7.094;2023-02-01T07:52:00;14.77;;;3.50;;
5845;SDS011;2949;50.778;7.094;2023-02-01T07:54:26;26.37;;;3.30;;
5845;SDS011;2949;50.778;7.094;2023-02-01T07:56:51;16.60;;;2.90;;
5845;SDS011;2949;50.778;7.094;2023-02-01T07:59:17;22.80;;;4.03;;
5845;SDS011;2949;50.778;7.094;2023-02-01T08:01:43;15.63;;;4.10;;
5845;SDS011;2949;50.778;7.094;2023-02-01T08:04:09;23.90;;;4.33;;
5845;SDS011;2949;50.778;7.094;2023-02-01T08:06:37;14.70;;;2.53;;
5845;SDS011;2949;50.778;7.094;2023-02-01T08:09:03;21.60;;;2.83;;
5845;SDS011;2949;50.778;7.094;2023-02-01T08:11:29;18.57;;;3.27;;
5845;SDS011;2949;50.778;7.094;2023-02-01T08:13:55;10.47;;;2.93;;
5845;SDS011;2949;50.778;7.094;2023-02-01T08:16:22;14.87;;;3.23;;
5845;SDS011;2949;50.778;7.094;2023-02-01T08:18:48;21.70;;;3.53;;
5845;SDS011;2949;50.778;7.094;2023-02-01T08:21:15;18.07;;;3.20;;
5845;SDS011;2949;50.778;7.094;2023-02-01T08:23:42;28.73;;;3.23;;
5845;SDS011;2949;50.778;7.094;2023-02-01T08:26:13;15.77;;;3.80;;
5845;SDS011;2949;50.778;7.094;2023-02-01T08:28:44;18.73;;;3.30;;
5845;SDS011;2949;50.778;7.094;2023-02-01T08:31:15;24.70;;;3.37;;
5845;SDS011;2949;50.778;7.094;2023-02-01T08:33:43;13.80;;;2.83;;
5845;SDS011;2949;50.778;7.094;2023-02-01T08:36:12;17.70;;;2.80;;
5845;SDS011;2949;50.778;7.094;2023-02-01T08:38:39;13.43;;;2.73;;
5845;SDS011;2949;50.778;7.094;2023-02-01T08:41:08;19.03;;;3.43;;
5845;SDS011;2949;50.778;7.094;2023-02-01T08:43:36;16.60;;;2.93;;
5845;SDS011;2949;50.778;7.094;2023-02-01T08:46:02;13.77;;;3.03;;
5845;SDS011;2949;50.778;7.094;2023-02-01T08:48:29;17.50;;;3.50;;
5845;SDS011;2949;50.778;7.094;2023-02-01T08:50:56;12.97;;;3.93;;
5845;SDS011;2949;50.778;7.094;2023-02-01T08:53:22;15.07;;;3.70;;
5845;SDS011;2949;50.778;7.094;2023-02-01T08:55:48;16.50;;;2.87;;
5845;SDS011;2949;50.778;7.094;2023-02-01T08:58:14;21.53;;;3.23;;
5845;SDS011;2949;50.778;7.094;2023-02-01T09:00:41;22.30;;;3.70;;
5845;SDS011;2949;50.778;7.094;2023-02-01T09:03:09;25.97;;;2.77;;
5845;SDS011;2949;50.778;7.094;2023-02-01T09:05:35;23.73;;;2.80;;
5845;SDS011;2949;50.778;7.094;2023-02-01T09:08:01;17.67;;;2.83;;
5845;SDS011;2949;50.778;7.094;2023-02-01T09:10:27;19.73;;;2.57;;
5845;SDS011;2949;50.778;7.094;2023-02-01T09:12:52;12.60;;;2.93;;
5845;SDS011;2949;50.778;7.094;2023-02-01T09:15:18;12.30;;;2.53;;
5845;SDS011;2949;50.778;7.094;2023-02-01T09:17:43;24.93;;;2.40;;
5845;SDS011;2949;50.778;7.094;2023-02-01T09:20:09;15.03;;;2.83;;
5845;SDS011;2949;50.778;7.094;2023-02-01T09:22:35;19.53;;;2.60;;
5845;SDS011;2949;50.778;7.094;2023-02-01T09:25:00;19.63;;;3.20;;
5845;SDS011;2949;50.778;7.094;2023-02-01T09:27:26;17.20;;;2.73;;
5845;SDS011;2949;50.778;7.094;2023-02-01T09:29:52;23.07;;;2.70;;
5845;SDS011;2949;50.778;7.094;2023-02-01T09:32:21;15.87;;;2.90;;
5845;SDS011;2949;50.778;7.094;2023-02-01T09:34:47;19.33;;;2.60;;
5845;SDS011;2949;50.778;7.094;2023-02-01T09:37:13;7.57;;;2.37;;
5845;SDS011;2949;50.778;7.094;2023-02-01T09:39:39;8.20;;;2.70;;
5845;SDS011;2949;50.778;7.094;2023-02-01T09:42:15;18.47;;;3.83;;
5845;SDS011;2949;50.778;7.094;2023-02-01T09:44:52;21.33;;;2.87;;
5845;SDS011;2949;50.778;7.094;2023-02-01T09:47:44;16.43;;;3.10;;
5845;SDS011;2949;50.778;7.094;2023-02-01T09:50:20;11.90;;;2.60;;
5845;SDS011;2949;50.778;7.094;2023-02-01T09:52:58;20.30;;;3.07;;
5845;SDS011;2949;50.778;7.094;2023-02-01T09:55:30;18.10;;;3.00;;
5845;SDS011;2949;50.778;7.094;2023-02-01T09:58:07;16.07;;;4.70;;
5845;SDS011;2949;50.778;7.094;2023-02-01T10:00:39;26.07;;;3.20;;
5845;SDS011;2949;50.778;7.094;2023-02-01T10:03:08;8.60;;;2.13;;
5845;SDS011;2949;50.778;7.094;2023-02-01T10:16:42;23.67;;;3.23;;
5845;SDS011;2949;50.778;7.094;2023-02-01T10:22:00;12.03;;;2.27;;
5845;SDS011;2949;50.778;7.094;2023-02-01T10:24:36;16.53;;;3.30;;
5845;SDS011;2949;50.778;7.094;2023-02-01T10:27:16;15.27;;;2.67;;
5845;SDS011;2949;50.778;7.094;2023-02-01T10:29:47;18.77;;;2.73;;
5845;SDS011;2949;50.778;7.094;2023-02-01T10:32:29;12.90;;;3.33;;
5845;SDS011;2949;50.778;7.094;2023-02-01T10:34:58;17.23;;;3.00;;
5845;SDS011;2949;50.778;7.094;2023-02-01T10:37:29;11.80;;;2.33;;
5845;SDS011;2949;50.778;7.094;2023-02-01T10:39:57;14.23;;;2.10;;
5845;SDS011;2949;50.778;7.094;2023-02-01T10:42:27;21.53;;;2.33;;
5845;SDS011;2949;50.778;7.094;2023-02-01T10:44:54;14.17;;;2.27;;
5845;SDS011;2949;50.778;7.094;2023-02-01T10:47:24;18.20;;;2.90;;
5845;SDS011;2949;50.778;7.094;2023-02-01T10:49:52;21.30;;;3.73;;
5845;SDS011;2949;50.778;7.094;2023-02-01T10:52:29;21.27;;;3.10;;
5845;SDS011;2949;50.778;7.094;2023-02-01T10:54:56;15.33;;;2.90;;
5845;SDS011;2949;50.778;7.094;2023-02-01T10:57:48;17.90;;;3.00;;
5845;SDS011;2949;50.778;7.094;2023-02-01T11:00:25;13.43;;;2.37;;
5845;SDS011;2949;50.778;7.094;2023-02-01T11:02:50;13.97;;;2.47;;
5845;SDS011;2949;50.778;7.094;2023-02-01T11:05:17;23.73;;;2.77;;
5845;SDS011;2949;50.778;7.094;2023-02-01T11:07:50;14.10;;;2.93;;
5845;SDS011;2949;50.778;7.094;2023-02-01T11:10:38;13.47;;;2.37;;
5845;SDS011;2949;50.778;7.094;2023-02-01T11:13:11;14.10;;;2.60;;
5845;SDS011;2949;50.778;7.094;2023-02-01T11:15:42;10.53;;;1.80;;
5845;SDS011;2949;50.778;7.094;2023-02-01T11:18:14;8.97;;;2.17;;
5845;SDS011;2949;50.778;7.094;2023-02-01T11:20:46;17.13;;;2.87;;
5845;SDS011;2949;50.778;7.094;2023-02-01T11:23:18;8.23;;;2.33;;
5845;SDS011;2949;50.778;7.094;2023-02-01T11:25:50;23.47;;;2.93;;
5845;SDS011;2949;50.778;7.094;2023-02-01T11:28:25;16.90;;;3.20;;
5845;SDS011;2949;50.778;7.094;2023-02-01T11:30:56;10.77;;;2.77;;
5845;SDS011;2949;50.778;7.094;2023-02-01T11:33:29;14.27;;;2.73;;
5845;SDS011;2949;50.778;7.094;2023-02-01T11:35:59;18.60;;;3.23;;
5845;SDS011;2949;50.778;7.094;2023-02-01T11:38:30;17.97;;;2.97;;
5845;SDS011;2949;50.778;7.094;2023-02-01T11:44:15;14.43;;;2.43;;
5845;SDS011;2949;50.778;7.094;2023-02-01T11:46:54;10.10;;;2.80;;
5845;SDS011;2949;50.778;7.094;2023-02-01T11:49:23;13.90;;;2.73;;
5845;SDS011;2949;50.778;7.094;2023-02-01T11:57:14;12.90;;;2.43;;
5845;SDS011;2949;50.778;7.094;2023-02-01T12:02:35;11.30;;;2.17;;
5845;SDS011;2949;50.778;7.094;2023-02-01T12:10:55;19.17;;;1.93;;
5845;SDS011;2949;50.778;7.094;2023-02-01T12:16:23;16.80;;;3.70;;
5845;SDS011;2949;50.778;7.094;2023-02-01T12:19:18;13.00;;;2.27;;
5845;SDS011;2949;50.778;7.094;2023-02-01T12:24:42;11.47;;;2.00;;
5845;SDS011;2949;50.778;7.094;2023-02-01T12:27:33;14.90;;;2.40;;
5845;SDS011;2949;50.778;7.094;2023-02-01T12:38:52;10.10;;;2.10;;
5845;SDS011;2949;50.778;7.094;2023-02-01T12:41:47;21.77;;;3.00;;
5845;SDS011;2949;50.778;7.094;2023-02-01T12:44:37;6.10;;;1.60;;
5845;SDS011;2949;50.778;7.094;2023-02-01T12:49:47;11.33;;;1.93;;
5845;SDS011;2949;50.778;7.094;2023-02-01T12:52:21;9.30;;;2.33;;
5845;SDS011;2949;50.778;7.094;2023-02-01T12:58:15;10.13;;;2.50;;
5845;SDS011;2949;50.778;7.094;2023-02-01T13:00:46;17.37;;;2.50;;
5845;SDS011;2949;50.778;7.094;2023-02-01T13:11:35;12.23;;;3.10;;
5845;SDS011;2949;50.778;7.094;2023-02-01T13:17:02;22.27;;;2.90;;
5845;SDS011;2949;50.778;7.094;2023-02-01T13:19:37;10.93;;;2.13;;
5845;SDS011;2949;50.778;7.094;2023-02-01T13:22:27;11.27;;;2.40;;
5845;SDS011;2949;50.778;7.094;2023-02-01T13:25:04;17.07;;;2.57;;
5845;SDS011;2949;50.778;7.094;2023-02-01T13:27:53;10.47;;;3.60;;
5845;SDS011;2949;50.778;7.094;2023-02-01T13:30:22;12.10;;;2.50;;
5845;SDS011;2949;50.778;7.094;2023-02-01T13:33:12;11.23;;;2.20;;
5845;SDS011;2949;50.778;7.094;2023-02-01T13:41:56;13.83;;;2.27;;
5845;SDS011;2949;50.778;7.094;2023-02-01T13:44:29;10.33;;;2.10;;
5845;SDS011;2949;50.778;7.094;2023-02-01T13:47:15;13.50;;;2.53;;
5845;SDS011;2949;50.778;7.094;2023-02-01T13:50:12;19.50;;;2.37;;
5845;SDS011;2949;50.778;7.094;2023-02-01T13:52:50;9.63;;;2.50;;
5845;SDS011;2949;50.778;7.094;2023-02-01T13:55:23;17.97;;;2.13;;
5845;SDS011;2949;50.778;7.094;2023-02-01T13:57:59;13.87;;;2.50;;
5845;SDS011;2949;50.778;7.094;2023-02-01T14:00:38;19.63;;;2.50;;
5845;SDS011;2949;50.778;7.094;2023-02-01T14:26:23;11.03;;;2.03;;
5845;SDS011;2949;50.778;7.094;2023-02-01T14:28:58;13.80;;;2.10;;
5845;SDS011;2949;50.778;7.094;2023-02-01T14:31:37;12.77;;;2.23;;
5845;SDS011;2949;50.778;7.094;2023-02-01T14:34:11;10.27;;;1.80;;
5845;SDS011;2949;50.778;7.094;2023-02-01T14:37:03;11.80;;;2.47;;
5845;SDS011;2949;50.778;7.094;2023-02-01T14:39:53;16.07;;;2.23;;
5845;SDS011;2949;50.778;7.094;2023-02-01T14:47:51;9.50;;;2.03;;
5845;SDS011;2949;50.778;7.094;2023-02-01T14:53:14;16.63;;;2.57;;
5845;SDS011;2949;50.778;7.094;2023-02-01T14:55:53;15.60;;;2.20;;
5845;SDS011;2949;50.778;7.094;2023-02-01T14:58:39;9.07;;;1.57;;
5845;SDS011;2949;50.778;7.094;2023-02-01T15:14:35;8.13;;;1.33;;
5845;SDS011;2949;50.778;7.094;2023-02-01T15:17:26;11.47;;;2.03;;
5845;SDS011;2949;50.778;7.094;2023-02-01T15:20:01;13.40;;;2.33;;
5845;SDS011;2949;50.778;7.094;2023-02-01T15:22:40;15.73;;;2.00;;
5845;SDS011;2949;50.778;7.094;2023-02-01T15:28:00;6.40;;;1.83;;
5845;SDS011;2949;50.778;7.094;2023-02-01T15:30:31;6.30;;;2.27;;
5845;SDS011;2949;50.778;7.094;2023-02-01T15:33:06;12.40;;;1.90;;
5845;SDS011;2949;50.778;7.094;2023-02-01T15:35:45;13.37;;;2.07;;
5845;SDS011;2949;50.778;7.094;2023-02-01T15:38:19;8.37;;;1.70;;
5845;SDS011;2949;50.778;7.094;2023-02-01T15:40:53;15.10;;;2.43;;
5845;SDS011;2949;50.778;7.094;2023-02-01T15:43:36;11.17;;;2.17;;
5845;SDS011;2949;50.778;7.094;2023-02-01T15:46:08;10.93;;;1.97;;
5845;SDS011;2949;50.778;7.094;2023-02-01T15:48:38;7.57;;;1.50;;
5845;SDS011;2949;50.778;7.094;2023-02-01T15:51:22;14.70;;;2.10;;
5845;SDS011;2949;50.778;7.094;2023-02-01T15:53:51;15.00;;;1.90;;
5845;SDS011;2949;50.778;7.094;2023-02-01T15:56:33;3.93;;;0.70;;
5845;SDS011;2949;50.778;7.094;2023-02-01T15:59:01;6.90;;;1.57;;
5845;SDS011;2949;50.778;7.094;2023-02-01T16:01:29;9.20;;;1.80;;
5845;SDS011;2949;50.778;7.094;2023-02-01T16:04:29;5.37;;;1.77;;
5845;SDS011;2949;50.778;7.094;2023-02-01T16:06:52;6.67;;;1.70;;
5845;SDS011;2949;50.778;7.094;2023-02-01T16:09:20;17.00;;;2.03;;
5845;SDS011;2949;50.778;7.094;2023-02-01T16:11:52;11.80;;;1.73;;
5845;SDS011;2949;50.778;7.094;2023-02-01T16:14:19;16.50;;;2.53;;
5845;SDS011;2949;50.778;7.094;2023-02-01T16:16:45;16.07;;;2.50;;
5845;SDS011;2949;50.778;7.094;2023-02-01T16:19:10;8.10;;;2.00;;
5845;SDS011;2949;50.778;7.094;2023-02-01T16:21:36;15.37;;;2.57;;
5845;SDS011;2949;50.778;7.094;2023-02-01T16:24:02;13.23;;;2.23;;
5845;SDS011;2949;50.778;7.094;2023-02-01T16:26:29;11.07;;;2.87;;
5845;SDS011;2949;50.778;7.094;2023-02-01T16:28:56;7.23;;;1.77;;
5845;SDS011;2949;50.778;7.094;2023-02-01T16:31:27;6.97;;;1.87;;
5845;SDS011;2949;50.778;7.094;2023-02-01T16:33:55;10.40;;;1.90;;
5845;SDS011;2949;50.778;7.094;2023-02-01T16:36:26;9.23;;;1.90;;
5845;SDS011;2949;50.778;7.094;2023-02-01T16:38:53;15.10;;;2.17;;
5845;SDS011;2949;50.778;7.094;2023-02-01T16:41:20;7.00;;;1.90;;
5845;SDS011;2949;50.778;7.094;2023-02-01T16:43:50;15.37;;;3.13;;
5845;SDS011;2949;50.778;7.094;2023-02-01T16:46:20;9.83;;;2.20;;
5845;SDS011;2949;50.778;7.094;2023-02-01T16:48:51;12.23;;;2.13;;
5845;SDS011;2949;50.778;7.094;2023-02-01T16:51:18;14.03;;;2.80;;
5845;SDS011;2949;50.778;7.094;2023-02-01T16:53:44;7.83;;;2.30;;
5845;SDS011;2949;50.778;7.094;2023-02-01T16:56:14;12.07;;;2.20;;
5845;SDS011;2949;50.778;7.094;2023-02-01T16:58:42;9.97;;;2.57;;
5845;SDS011;2949;50.778;7.094;2023-02-01T17:01:09;16.17;;;1.97;;
5845;SDS011;2949;50.778;7.094;2023-02-01T17:03:35;18.53;;;2.43;;
5845;SDS011;2949;50.778;7.094;2023-02-01T17:06:02;13.57;;;2.50;;
5845;SDS011;2949;50.778;7.094;2023-02-01T17:08:30;13.77;;;2.10;;
5845;SDS011;2949;50.778;7.094;2023-02-01T17:10:58;21.57;;;3.73;;
5845;SDS011;2949;50.778;7.094;2023-02-01T17:13:23;16.53;;;2.83;;
5845;SDS011;2949;50.778;7.094;2023-02-01T17:15:50;8.83;;;2.97;;
5845;SDS011;2949;50.778;7.094;2023-02-01T17:18:37;9.93;;;2.37;;
5845;SDS011;2949;50.778;7.094;2023-02-01T17:21:03;15.43;;;3.00;;
5845;SDS011;2949;50.778;7.094;2023-02-01T17:23:30;17.43;;;3.27;;
5845;SDS011;2949;50.778;7.094;2023-02-01T17:25:56;12.80;;;3.20;;
5845;SDS011;2949;50.778;7.094;2023-02-01T17:28:22;12.77;;;3.20;;
5845;SDS011;2949;50.778;7.094;2023-02-01T17:30:48;8.67;;;2.10;;
5845;SDS011;2949;50.778;7.094;2023-02-01T17:33:20;22.13;;;3.10;;
5845;SDS011;2949;50.778;7.094;2023-02-01T17:35:54;15.93;;;3.13;;
5845;SDS011;2949;50.778;7.094;2023-02-01T17:38:20;11.00;;;3.07;;
5845;SDS011;2949;50.778;7.094;2023-02-01T17:40:46;15.77;;;3.67;;
5845;SDS011;2949;50.778;7.094;2023-02-01T17:43:13;13.63;;;3.00;;
5845;SDS011;2949;50.778;7.094;2023-02-01T17:45:44;13.33;;;3.57;;
5845;SDS011;2949;50.778;7.094;2023-02-01T17:48:16;19.93;;;3.77;;
5845;SDS011;2949;50.778;7.094;2023-02-01T17:50:43;16.80;;;3.50;;
5845;SDS011;2949;50.778;7.094;2023-02-01T17:53:11;20.60;;;5.70;;
5845;SDS011;2949;50.778;7.094;2023-02-01T17:55:40;22.20;;;3.87;;
5845;SDS011;2949;50.778;7.094;2023-02-01T17:58:08;19.90;;;4.43;;
5845;SDS011;2949;50.778;7.094;2023-02-01T18:00:39;17.83;;;4.10;;
5845;SDS011;2949;50.778;7.094;2023-02-01T18:03:06;16.37;;;3.73;;
5845;SDS011;2949;50.778;7.094;2023-02-01T18:05:40;12.90;;;2.90;;